createdAt,value
2019-02-12T00:01:18.312Z,98841.63
2019-02-12T00:03:48.782Z,98878.92
2019-02-12T00:06:19.279Z,98873.26
2019-02-12T00:08:49.737Z,98849.48
2019-02-12T00:11:20.236Z,98872.25
2019-02-12T00:13:50.692Z,98883.13
2019-02-12T00:16:21.189Z,98879.95
2019-02-12T00:18:51.681Z,98862.14
2019-02-12T00:21:22.154Z,98867.79
2019-02-12T00:23:52.641Z,98875.23
2019-02-12T00:26:23.091Z,98864.67
2019-02-12T00:28:53.548Z,98870.00
2019-02-12T00:31:24.041Z,98868.43
2019-02-12T00:33:54.532Z,98882.74
2019-02-12T00:36:24.989Z,98887.65
2019-02-12T00:38:55.494Z,98880.83
2019-02-12T00:41:25.957Z,98891.16
2019-02-12T00:43:56.453Z,98900.69
2019-02-12T00:46:26.961Z,98895.66
2019-02-12T00:48:57.462Z,98906.09
2019-02-12T00:51:27.930Z,98906.02
2019-02-12T00:53:58.424Z,98913.17
2019-02-12T00:56:28.946Z,98910.84
2019-02-12T00:58:59.397Z,98908.60
2019-02-12T01:01:29.852Z,98896.43
2019-02-12T01:04:00.352Z,98905.86
2019-02-12T01:06:30.862Z,98906.62
2019-02-12T01:09:01.331Z,98906.25
2019-02-12T01:11:31.797Z,98900.41
2019-02-12T01:14:02.296Z,98894.89
2019-02-12T01:16:32.856Z,98911.59
2019-02-12T01:19:03.363Z,98914.70
2019-02-12T01:21:33.845Z,98915.27
2019-02-12T01:24:04.291Z,98914.77
2019-02-12T01:26:34.777Z,98909.38
2019-02-12T01:29:05.220Z,98915.27
2019-02-12T01:31:35.721Z,98906.84
2019-02-12T01:34:06.179Z,98918.33
2019-02-12T01:36:36.671Z,98922.03
2019-02-12T01:39:11.347Z,98916.69
2019-02-12T01:41:41.954Z,98926.53
2019-02-12T01:44:12.448Z,98927.34
2019-02-12T01:46:42.945Z,98927.95
2019-02-12T01:49:13.400Z,98934.84
2019-02-12T01:51:43.908Z,98935.56
2019-02-12T01:54:14.423Z,98938.21
2019-02-12T01:56:44.876Z,98929.36
2019-02-12T01:59:15.324Z,98943.64
2019-02-12T02:01:45.838Z,98956.25
2019-02-12T02:04:16.292Z,98964.73
2019-02-12T02:06:46.753Z,98953.20
2019-02-12T02:09:17.245Z,98942.19
2019-02-12T02:11:47.705Z,98958.19
2019-02-12T02:14:18.301Z,98946.92
2019-02-12T02:16:48.770Z,98957.02
2019-02-12T02:19:19.259Z,98961.81
2019-02-12T02:21:49.726Z,98963.44
2019-02-12T02:24:20.231Z,98956.66
2019-02-12T02:26:50.689Z,98954.89
2019-02-12T02:29:21.192Z,98967.77
2019-02-12T02:31:51.698Z,98978.55
2019-02-12T02:34:22.142Z,98975.17
2019-02-12T02:36:52.673Z,98981.31
2019-02-12T02:39:23.141Z,98981.90
2019-02-12T02:41:53.606Z,98997.03
2019-02-12T02:44:24.108Z,98988.62
2019-02-12T02:46:54.609Z,99000.11
2019-02-12T02:49:25.077Z,99001.02
2019-02-12T02:51:55.509Z,99016.23
2019-02-12T02:54:26.009Z,99024.46
2019-02-12T02:56:56.446Z,99025.59
2019-02-12T02:59:26.937Z,99021.84
2019-02-12T03:01:57.363Z,99027.16
2019-02-12T03:04:27.860Z,99028.81
2019-02-12T03:06:58.314Z,99032.39
2019-02-12T03:09:28.807Z,99017.89
2019-02-12T03:11:59.288Z,99024.55
2019-02-12T03:14:29.807Z,99032.01
2019-02-12T03:17:00.273Z,99025.53
2019-02-12T03:19:30.775Z,99022.08
2019-02-12T03:22:03.704Z,99014.00
2019-02-12T03:24:33.439Z,99027.02
2019-02-12T03:27:03.964Z,99035.23
2019-02-12T03:29:34.412Z,99043.91
2019-02-12T03:32:04.862Z,99048.84
2019-02-12T03:34:35.368Z,99054.24
2019-02-12T03:37:05.870Z,99042.13
2019-02-12T03:39:36.320Z,99045.11
2019-02-12T03:42:06.788Z,99048.56
2019-02-12T03:44:37.251Z,99047.06
2019-02-12T03:47:07.697Z,99054.23
2019-02-12T03:49:38.172Z,99045.12
2019-02-12T03:52:12.995Z,99046.47
2019-02-12T03:54:40.999Z,99052.58
2019-02-12T03:57:11.511Z,99038.23
2019-02-12T03:59:42.110Z,99044.60
2019-02-12T04:02:12.584Z,99048.34
2019-02-12T04:04:43.292Z,99047.45
2019-02-12T04:07:13.746Z,99046.60
2019-02-12T04:09:44.253Z,99052.89
2019-02-12T04:12:14.711Z,99053.20
2019-02-12T04:14:45.171Z,99048.26
2019-02-12T04:17:15.675Z,99047.58
2019-02-12T04:19:46.151Z,99051.93
2019-02-12T04:22:22.580Z,99049.09
2019-02-12T04:24:48.786Z,99065.59
2019-02-12T04:27:19.247Z,99075.53
2019-02-12T04:29:49.855Z,99071.05
2019-02-12T04:32:20.306Z,99078.02
2019-02-12T04:34:50.809Z,99087.13
2019-02-12T04:37:21.262Z,99081.67
2019-02-12T04:39:51.755Z,99084.81
2019-02-12T04:42:22.340Z,99084.43
2019-02-12T04:44:54.262Z,99091.76
2019-02-12T04:47:24.788Z,99072.78
2019-02-12T04:49:55.309Z,99083.53
2019-02-12T04:52:31.734Z,99088.46
2019-02-12T04:54:57.940Z,99080.55
2019-02-12T04:57:28.394Z,99082.05
2019-02-12T04:59:58.884Z,99088.84
2019-02-12T05:02:29.363Z,99105.20
2019-02-12T05:04:59.861Z,99101.31
2019-02-12T05:07:30.304Z,99107.47
2019-02-12T05:10:00.826Z,99112.69
2019-02-12T05:12:31.288Z,99116.82
2019-02-12T05:15:01.744Z,99118.91
2019-02-12T05:17:32.219Z,99129.22
2019-02-12T05:20:02.677Z,99142.89
2019-02-12T05:22:42.911Z,99130.34
2019-02-12T05:25:05.710Z,99141.54
2019-02-12T05:27:36.226Z,99149.19
2019-02-12T05:30:07.821Z,99150.42
2019-02-12T05:32:38.302Z,99156.55
2019-02-12T05:35:09.030Z,99142.67
2019-02-12T05:37:39.501Z,99151.77
2019-02-12T05:40:10.460Z,99141.25
2019-02-12T05:42:40.976Z,99156.05
2019-02-12T05:45:11.963Z,99149.76
2019-02-12T05:47:42.569Z,99171.89
2019-02-12T05:50:13.372Z,99174.22
2019-02-12T05:52:53.327Z,99176.09
2019-02-12T05:55:16.100Z,99188.07
2019-02-12T05:57:46.614Z,99186.01
2019-02-12T06:00:18.462Z,99203.72
2019-02-12T06:02:48.918Z,99191.60
2019-02-12T06:05:27.827Z,99191.17
2019-02-12T06:07:58.476Z,99190.05
2019-02-12T06:10:29.064Z,99181.14
2019-02-12T06:12:59.589Z,99188.86
2019-02-12T06:15:30.713Z,99184.06
2019-02-12T06:18:01.212Z,99193.34
2019-02-12T06:20:31.791Z,99187.88
2019-02-12T06:23:04.056Z,99193.20
2019-02-12T06:25:34.817Z,99190.27
2019-02-12T06:28:05.301Z,99201.95
2019-02-12T06:30:35.794Z,99205.81
2019-02-12T06:33:07.849Z,99203.13
2019-02-12T06:35:38.425Z,99201.48
2019-02-12T06:38:08.949Z,99187.46
2019-02-12T06:40:39.450Z,99179.81
2019-02-12T06:43:09.939Z,99189.19
2019-02-12T06:45:40.577Z,99193.58
2019-02-12T06:48:11.087Z,99199.56
2019-02-12T06:50:41.580Z,99205.14
2019-02-12T06:53:12.852Z,99197.15
2019-02-12T06:55:43.407Z,99204.33
2019-02-12T06:58:16.232Z,99210.69
2019-02-12T07:00:46.732Z,99227.68
2019-02-12T07:03:22.258Z,99227.89
2019-02-12T07:06:13.558Z,99239.91
2019-02-12T07:09:01.615Z,99239.97
2019-02-12T07:11:53.540Z,99245.81
2019-02-12T07:14:35.191Z,99249.53
2019-02-12T07:17:53.072Z,99239.34
2019-02-12T07:20:53.184Z,99239.19
2019-02-12T07:23:59.944Z,99240.81
2019-02-12T07:27:05.306Z,99247.05
2019-02-12T07:30:07.924Z,99236.32
2019-02-12T07:33:13.123Z,99230.00
2019-02-12T07:36:26.626Z,99228.67
2019-02-12T07:39:46.821Z,99229.03
2019-02-12T07:42:42.962Z,99234.48
2019-02-12T07:45:53.941Z,99213.12
2019-02-12T07:48:54.969Z,99218.12
2019-02-12T07:52:00.230Z,99210.87
2019-02-12T07:54:55.120Z,99219.00
2019-02-12T07:58:20.111Z,99195.42
2019-02-12T08:01:26.918Z,99208.16
2019-02-12T08:04:51.738Z,99215.49
2019-02-12T08:08:03.913Z,99189.21
2019-02-12T08:11:15.094Z,99225.22
2019-02-12T08:14:03.405Z,99231.63
2019-02-12T08:17:17.731Z,99244.14
2019-02-12T08:20:20.015Z,99223.53
2019-02-12T08:23:07.767Z,99249.75
2019-02-12T08:26:03.711Z,99260.16
2019-02-12T08:29:13.748Z,99256.67
2019-02-12T08:32:29.871Z,99258.12
2019-02-12T08:35:25.255Z,99271.29
2019-02-12T08:38:32.264Z,99278.57
2019-02-12T08:41:49.286Z,99274.90
2019-02-12T08:45:21.553Z,99273.49
2019-02-12T08:48:33.410Z,99275.92
2019-02-12T08:51:50.359Z,99294.38
2019-02-12T08:54:37.522Z,99285.23
2019-02-12T08:57:54.952Z,99287.88
2019-02-12T09:01:08.631Z,99256.83
2019-02-12T09:04:13.279Z,99232.64
2019-02-12T09:07:05.224Z,99248.42
2019-02-12T09:10:19.399Z,99248.39
2019-02-12T09:13:14.379Z,99258.60
2019-02-12T09:16:08.389Z,99278.20
2019-02-12T09:19:03.257Z,99270.63
2019-02-12T09:22:12.968Z,99258.37
2019-02-12T09:25:13.493Z,99280.42
2019-02-12T09:27:52.072Z,99286.36
2019-02-12T09:30:53.675Z,99297.73
2019-02-12T09:34:15.452Z,99299.33
2019-02-12T09:37:22.331Z,99290.49
2019-02-12T09:40:42.321Z,99319.42
2019-02-12T09:43:27.757Z,99310.95
2019-02-12T09:46:07.944Z,99320.57
2019-02-12T09:48:44.602Z,99317.11
2019-02-12T09:51:52.310Z,99296.43
2019-02-12T09:54:54.132Z,99292.79
2019-02-12T09:58:11.820Z,99315.95
2019-02-12T10:00:53.714Z,99303.76
2019-02-12T10:04:13.950Z,99315.47
2019-02-12T10:07:31.427Z,99319.69
2019-02-12T10:10:39.861Z,99319.28
2019-02-12T10:13:51.042Z,99307.06
2019-02-12T10:16:50.407Z,99328.02
2019-02-12T10:19:40.686Z,99305.99
2019-02-12T10:22:33.138Z,99340.43
2019-02-12T10:25:33.516Z,99331.34
2019-02-12T10:28:52.997Z,99350.38
2019-02-12T10:31:49.627Z,99329.20
2019-02-12T10:34:20.127Z,99338.51
2019-02-12T10:36:50.596Z,99322.27
2019-02-12T10:39:21.403Z,99310.79
2019-02-12T10:41:51.963Z,99328.49
2019-02-12T10:44:22.426Z,99325.61
2019-02-12T10:46:52.944Z,99314.74
2019-02-12T10:49:23.391Z,99344.30
2019-02-12T10:51:56.607Z,99359.83
2019-02-12T10:54:28.165Z,99350.08
2019-02-12T10:56:59.393Z,99362.47
2019-02-12T10:59:29.869Z,99370.20
2019-02-12T11:02:00.604Z,99368.44
2019-02-12T11:04:31.091Z,99376.45
2019-02-12T11:07:01.563Z,99369.28
2019-02-12T11:09:32.065Z,99380.33
2019-02-12T11:12:02.596Z,99386.91
2019-02-12T11:14:33.148Z,99405.34
2019-02-12T11:17:03.826Z,99407.73
2019-02-12T11:19:34.799Z,99384.75
2019-02-12T11:22:05.514Z,99386.45
2019-02-12T11:24:35.983Z,99428.87
2019-02-12T11:27:06.524Z,99391.92
2019-02-12T11:29:37.077Z,99434.38
2019-02-12T11:32:07.641Z,99432.72
2019-02-12T11:34:38.113Z,99432.41
2019-02-12T11:37:08.624Z,99437.87
2019-02-12T11:39:39.225Z,99453.66
2019-02-12T11:42:09.710Z,99461.06
2019-02-12T11:44:40.220Z,99467.99
2019-02-12T11:47:10.682Z,99482.98
2019-02-12T11:49:41.175Z,99474.17
2019-02-12T11:52:11.825Z,99476.91
2019-02-12T11:54:43.935Z,99473.41
2019-02-12T11:57:15.821Z,99465.29
2019-02-12T11:59:46.492Z,99476.07
2019-02-12T12:02:17.010Z,99487.62
2019-02-12T12:04:47.621Z,99493.31
2019-02-12T12:07:18.635Z,99485.46
2019-02-12T12:09:49.131Z,99501.48
2019-02-12T12:12:19.725Z,99494.53
2019-02-12T12:14:50.191Z,99496.47
2019-02-12T12:17:20.744Z,99509.01
2019-02-12T12:19:52.333Z,99502.78
2019-02-12T12:22:22.793Z,99509.41
2019-02-12T12:24:53.317Z,99505.18
2019-02-12T12:27:23.843Z,99513.37
2019-02-12T12:29:54.511Z,99517.45
2019-02-12T12:32:25.223Z,99521.55
2019-02-12T12:34:59.143Z,99522.31
2019-02-12T12:37:28.727Z,99507.06
2019-02-12T12:40:00.055Z,99507.11
2019-02-12T12:42:31.619Z,99531.20
2019-02-12T12:45:02.230Z,99521.35
2019-02-12T12:47:32.769Z,99542.12
2019-02-12T12:50:03.301Z,99544.20
2019-02-12T12:52:34.812Z,99539.69
2019-02-12T12:55:05.791Z,99506.52
2019-02-12T12:57:41.869Z,99568.42
2019-02-12T13:00:10.584Z,99547.80
2019-02-12T13:02:41.060Z,99532.12
2019-02-12T13:05:11.904Z,99566.14
2019-02-12T13:07:42.514Z,99560.19
2019-02-12T13:10:14.440Z,99531.98
2019-02-12T13:12:44.966Z,99562.56
2019-02-12T13:15:15.672Z,99560.63
2019-02-12T13:17:46.301Z,99580.53
2019-02-12T13:20:16.843Z,99589.57
2019-02-12T13:22:47.498Z,99585.02
2019-02-12T13:25:18.002Z,99579.23
2019-02-12T13:27:48.493Z,99595.08
2019-02-12T13:30:19.115Z,99552.97
2019-02-12T13:32:49.756Z,99602.82
2019-02-12T13:35:20.307Z,99620.05
2019-02-12T13:37:50.846Z,99621.84
2019-02-12T13:40:21.336Z,99616.53
2019-02-12T13:42:51.850Z,99619.70
2019-02-12T13:45:22.346Z,99636.66
2019-02-12T13:47:52.960Z,99621.50
2019-02-12T13:50:23.455Z,99641.61
2019-02-12T13:52:53.971Z,99656.67
2019-02-12T13:55:24.499Z,99650.68
2019-02-12T13:57:55.407Z,99653.55
2019-02-12T14:00:25.886Z,99674.94
2019-02-12T14:02:56.401Z,99678.01
2019-02-12T14:05:26.926Z,99655.86
2019-02-12T14:07:57.510Z,99669.20
2019-02-12T14:10:27.972Z,99682.53
2019-02-12T14:12:58.485Z,99681.08
2019-02-12T14:15:29.058Z,99691.13
2019-02-12T14:17:59.542Z,99680.89
2019-02-12T14:20:30.181Z,99687.15
2019-02-12T14:23:00.726Z,99703.86
2019-02-12T14:25:31.244Z,99697.09
2019-02-12T14:28:01.757Z,99696.03
2019-02-12T14:30:32.377Z,99721.48
2019-02-12T14:33:02.999Z,99722.22
2019-02-12T14:35:33.520Z,99702.84
2019-02-12T14:38:04.115Z,99727.06
2019-02-12T14:40:35.442Z,99729.30
2019-02-12T14:43:13.649Z,99727.14
2019-02-12T14:45:38.371Z,99743.08
2019-02-12T14:48:08.856Z,99629.02
2019-02-12T14:50:39.401Z,99736.98
2019-02-12T14:53:09.925Z,99744.73
2019-02-12T14:55:40.517Z,99641.31
2019-02-12T14:58:11.019Z,99770.02
2019-02-12T15:00:41.882Z,99773.49
2019-02-12T15:03:12.364Z,99767.48
2019-02-12T15:05:42.839Z,99771.75
2019-02-12T15:08:13.367Z,99768.55
2019-02-12T15:10:43.944Z,99774.44
2019-02-12T15:13:14.482Z,99781.77
2019-02-12T15:15:45.042Z,99778.81
2019-02-12T15:18:15.593Z,99784.48
2019-02-12T15:20:46.083Z,99791.94
2019-02-12T15:23:17.863Z,99771.78
2019-02-12T15:25:48.385Z,99793.08
2019-02-12T15:28:18.924Z,99795.81
2019-02-12T15:30:49.866Z,99794.75
2019-02-12T15:33:20.397Z,99802.64
2019-02-12T15:35:50.887Z,99823.84
2019-02-12T15:38:21.419Z,99803.70
2019-02-12T15:40:51.903Z,99825.87
2019-02-12T15:43:22.564Z,99822.82
2019-02-12T15:45:53.491Z,99831.41
2019-02-12T15:48:24.061Z,99838.25
2019-02-12T15:50:54.547Z,99835.38
2019-02-12T15:53:25.031Z,99858.37
2019-02-12T15:55:56.130Z,99852.66
2019-02-12T15:58:28.255Z,99858.75
2019-02-12T16:00:58.824Z,99866.46
2019-02-12T16:03:29.343Z,99870.91
2019-02-12T16:05:59.821Z,99877.95
2019-02-12T16:08:31.992Z,99890.49
2019-02-12T16:11:03.727Z,99893.80
2019-02-12T16:13:34.704Z,99897.78
2019-02-12T16:16:07.813Z,99901.33
2019-02-12T16:18:38.611Z,99902.23
2019-02-12T16:21:09.079Z,99924.54
2019-02-12T16:23:39.687Z,99929.53
2019-02-12T16:26:10.263Z,99928.79
2019-02-12T16:28:40.786Z,99935.22
2019-02-12T16:31:11.264Z,99944.23
2019-02-12T16:33:41.791Z,99956.37
2019-02-12T16:36:12.258Z,99961.03
2019-02-12T16:38:42.776Z,99977.59
2019-02-12T16:41:13.258Z,99970.14
2019-02-12T16:43:43.768Z,99970.77
2019-02-12T16:46:17.577Z,99971.39
2019-02-12T16:48:48.153Z,99995.10
2019-02-12T16:51:18.849Z,100002.27
2019-02-12T16:53:49.375Z,100016.13
2019-02-12T16:56:19.844Z,100022.23
2019-02-12T16:58:50.316Z,100024.00
2019-02-12T17:01:20.829Z,100027.72
2019-02-12T17:03:51.307Z,100025.79
2019-02-12T17:06:21.829Z,100035.48
2019-02-12T17:08:52.358Z,100034.77
2019-02-12T17:11:22.867Z,100038.47
2019-02-12T17:13:53.383Z,100043.84
2019-02-12T17:16:23.820Z,100054.77
2019-02-12T17:18:54.359Z,100053.14
2019-02-12T17:21:25.438Z,100071.85
2019-02-12T17:23:57.120Z,100067.27
2019-02-12T17:26:27.627Z,100077.02
2019-02-12T17:28:58.100Z,100072.35
2019-02-12T17:31:28.617Z,100081.22
2019-02-12T17:33:59.103Z,100086.83
2019-02-12T17:36:29.627Z,100091.36
2019-02-12T17:39:00.156Z,100084.11
2019-02-12T17:41:30.639Z,100081.49
2019-02-12T17:44:01.125Z,100084.52
2019-02-12T17:46:31.654Z,100098.66
2019-02-12T17:49:02.139Z,100097.39
2019-02-12T17:51:32.675Z,100092.56
2019-02-12T17:54:03.198Z,100094.44
2019-02-12T17:56:33.689Z,100100.69
2019-02-12T17:59:04.159Z,100097.32
2019-02-12T18:01:36.185Z,100099.90
2019-02-12T18:04:06.677Z,100099.15
2019-02-12T18:06:38.304Z,100102.73
2019-02-12T18:09:09.420Z,100101.09
2019-02-12T18:11:39.960Z,100102.78
2019-02-12T18:14:10.435Z,100107.75
2019-02-12T18:16:40.966Z,100112.78
2019-02-12T18:19:11.484Z,100107.18
2019-02-12T18:21:42.008Z,100112.32
2019-02-12T18:24:12.495Z,100107.31
2019-02-12T18:26:44.645Z,100119.23
2019-02-12T18:29:15.176Z,100119.33
2019-02-12T18:31:46.695Z,100124.19
2019-02-12T18:34:17.196Z,100125.41
2019-02-12T18:36:47.736Z,100125.98
2019-02-12T18:39:18.229Z,100121.01
2019-02-12T18:41:48.709Z,100126.11
2019-02-12T18:44:20.284Z,100133.16
2019-02-12T18:46:51.076Z,100129.84
2019-02-12T18:49:21.903Z,100128.61
2019-02-12T18:51:53.835Z,100144.34
2019-02-12T18:54:24.655Z,100142.75
2019-02-12T18:56:55.426Z,100135.33
2019-02-12T18:59:26.248Z,100142.98
2019-02-12T19:01:57.020Z,100148.42
2019-02-12T19:04:27.555Z,100148.87
2019-02-12T19:06:58.416Z,100143.81
2019-02-12T19:09:28.907Z,100155.66
2019-02-12T19:11:59.447Z,100163.27
2019-02-12T19:14:30.286Z,100167.59
2019-02-12T19:17:00.801Z,100180.58
2019-02-12T19:19:31.295Z,100171.63
2019-02-12T19:22:01.822Z,100166.04
2019-02-12T19:24:32.372Z,100177.13
2019-02-12T19:27:03.459Z,100194.30
2019-02-12T19:29:34.230Z,100190.01
2019-02-12T19:32:05.264Z,100191.48
2019-02-12T19:34:36.069Z,100192.33
2019-02-12T19:37:06.567Z,100189.39
2019-02-12T19:39:37.362Z,100215.19
2019-02-12T19:42:07.858Z,100197.79
2019-02-12T19:44:38.407Z,100214.59
2019-02-12T19:47:09.702Z,100207.91
2019-02-12T19:49:42.026Z,100201.61
2019-02-12T19:52:12.978Z,100209.84
2019-02-12T19:54:43.563Z,100199.42
2019-02-12T19:57:14.049Z,100199.82
2019-02-12T19:59:44.605Z,100209.64
2019-02-12T20:02:15.202Z,100207.98
2019-02-12T20:04:45.694Z,100199.36
2019-02-12T20:07:16.225Z,100206.64
2019-02-12T20:09:46.730Z,100212.66
2019-02-12T20:12:17.269Z,100210.28
2019-02-12T20:14:47.815Z,100212.06
2019-02-12T20:17:18.354Z,100207.34
2019-02-12T20:19:48.854Z,100209.56
2019-02-12T20:22:19.394Z,100198.77
2019-02-12T20:24:50.163Z,100201.22
2019-02-12T20:27:25.887Z,100205.55
2019-02-12T20:29:56.752Z,100220.31
2019-02-12T20:32:27.240Z,100227.27
2019-02-12T20:34:57.788Z,100230.38
2019-02-12T20:37:29.077Z,100236.53
2019-02-12T20:39:59.565Z,100245.88
2019-02-12T20:42:30.097Z,100237.06
2019-02-12T20:45:03.771Z,100241.08
2019-02-12T20:47:35.265Z,100232.42
2019-02-12T20:50:06.560Z,100241.34
2019-02-12T20:52:37.085Z,100239.89
2019-02-12T20:55:08.573Z,100245.78
2019-02-12T20:57:39.166Z,100247.25
2019-02-12T21:00:12.753Z,100243.97
2019-02-12T21:02:44.640Z,100246.30
2019-02-12T21:05:15.648Z,100261.13
2019-02-12T21:07:48.524Z,100256.80
2019-02-12T21:10:19.050Z,100262.90
2019-02-12T21:12:49.971Z,100269.23
2019-02-12T21:15:22.908Z,100261.61
2019-02-12T21:17:53.822Z,100268.48
2019-02-12T21:20:24.305Z,100270.05
2019-02-12T21:22:54.782Z,100266.16
2019-02-12T21:25:25.244Z,100266.28
2019-02-12T21:27:55.749Z,100273.95
2019-02-12T21:30:26.457Z,100276.77
2019-02-12T21:32:57.002Z,100278.68
2019-02-12T21:35:27.489Z,100284.70
2019-02-12T21:37:58.317Z,100281.79
2019-02-12T21:40:28.958Z,100284.69
2019-02-12T21:42:59.464Z,100289.93
2019-02-12T21:45:30.057Z,100291.75
2019-02-12T21:48:00.513Z,100297.34
2019-02-12T21:50:31.014Z,100295.88
2019-02-12T21:53:01.524Z,100298.30
2019-02-12T21:55:31.964Z,100308.14
2019-02-12T21:58:02.421Z,100307.36
2019-02-12T22:00:32.899Z,100316.28
2019-02-12T22:03:03.644Z,100313.08
2019-02-12T22:05:34.115Z,100320.66
2019-02-12T22:08:04.563Z,100316.84
2019-02-12T22:10:35.062Z,100322.27
2019-02-12T22:13:05.612Z,100325.47
2019-02-12T22:15:36.068Z,100314.30
2019-02-12T22:18:06.550Z,100320.27
2019-02-12T22:20:37.045Z,100321.19
2019-02-12T22:23:07.505Z,100325.03
2019-02-12T22:25:38.026Z,100315.72
2019-02-12T22:28:08.522Z,100329.02
2019-02-12T22:30:39.206Z,100328.98
2019-02-12T22:33:09.710Z,100336.81
2019-02-12T22:35:40.272Z,100338.89
2019-02-12T22:38:10.732Z,100325.85
2019-02-12T22:40:41.191Z,100334.61
2019-02-12T22:43:11.691Z,100338.16
2019-02-12T22:45:42.148Z,100330.58
2019-02-12T22:48:14.095Z,100335.60
2019-02-12T22:50:44.544Z,100326.30
2019-02-12T22:53:15.031Z,100340.19
2019-02-12T22:55:45.563Z,100341.29
2019-02-12T22:58:16.044Z,100354.85
2019-02-12T23:01:00.984Z,100349.69
2019-02-12T23:03:31.594Z,100357.54
2019-02-12T23:06:02.072Z,100353.25
2019-02-12T23:08:32.685Z,100353.42
2019-02-12T23:11:03.230Z,100352.73
2019-02-12T23:13:33.947Z,100351.73
2019-02-12T23:16:04.783Z,100346.02
2019-02-12T23:18:53.936Z,100346.02
2019-02-12T23:21:24.421Z,100351.20
2019-02-12T23:23:54.893Z,100362.99
2019-02-12T23:26:25.406Z,100349.35
2019-02-12T23:28:55.881Z,100364.22
2019-02-12T23:31:26.356Z,100360.53
2019-02-12T23:33:56.908Z,100358.48
2019-02-12T23:36:27.418Z,100375.22
2019-02-12T23:38:57.905Z,100359.01
2019-02-12T23:41:28.475Z,100375.20
2019-02-12T23:43:58.954Z,100379.33
2019-02-12T23:46:29.436Z,100386.36
2019-02-12T23:48:59.935Z,100392.19
2019-02-12T23:51:30.552Z,100390.70
2019-02-12T23:54:01.026Z,100389.69
2019-02-12T23:56:31.633Z,100391.30
2019-02-12T23:59:02.112Z,100395.95
